sensor_id;sensor_type;location;lat;lon;timestamp;pressure;altitude;pressure_sealevel;temperature;humidity
596;BME280;19946;49.306;11.350;2023-05-13T00:00:29;96356.06;;;6.78;100.00
596;BME280;19946;49.306;11.350;2023-05-13T00:03:37;96401.53;;;6.90;100.00
596;BME280;19946;49.306;11.350;2023-05-13T00:06:38;96398.31;;;6.99;100.00
596;BME280;19946;49.306;11.350;2023-05-13T00:09:46;96399.00;;;7.01;100.00
596;BME280;19946;49.306;11.350;2023-05-13T00:12:49;96407.63;;;7.13;100.00
596;BME280;19946;49.306;11.350;2023-05-13T00:16:02;96378.31;;;7.03;100.00
596;BME280;19946;49.306;11.350;2023-05-13T00:19:06;96349.69;;;6.94;100.00
596;BME280;19946;49.306;11.350;2023-05-13T00:22:10;96320.09;;;6.89;100.00
596;BME280;19946;49.306;11.350;2023-05-13T00:25:20;96397.28;;;7.37;100.00
596;BME280;19946;49.306;11.350;2023-05-13T00:28:21;96358.28;;;7.06;100.00
596;BME280;19946;49.306;11.350;2023-05-13T00:31:45;96336.94;;;6.93;100.00
596;BME280;19946;49.306;11.350;2023-05-13T00:34:49;96374.78;;;7.27;100.00
596;BME280;19946;49.306;11.350;2023-05-13T00:37:49;96364.88;;;7.10;100.00
596;BME280;19946;49.306;11.350;2023-05-13T00:40:50;96336.41;;;7.01;100.00
596;BME280;19946;49.306;11.350;2023-05-13T00:43:56;96383.81;;;7.33;100.00
596;BME280;19946;49.306;11.350;2023-05-13T00:46:57;96406.13;;;7.45;100.00
596;BME280;19946;49.306;11.350;2023-05-13T00:49:58;96408.81;;;7.44;100.00
596;BME280;19946;49.306;11.350;2023-05-13T00:52:59;96394.75;;;7.48;100.00
596;BME280;19946;49.306;11.350;2023-05-13T00:56:01;96376.78;;;7.24;100.00
596;BME280;19946;49.306;11.350;2023-05-13T00:59:02;96402.69;;;7.33;100.00
596;BME280;19946;49.306;11.350;2023-05-13T01:05:42;96410.66;;;7.42;100.00
596;BME280;19946;49.306;11.350;2023-05-13T01:11:52;96388.03;;;7.34;100.00
596;BME280;19946;49.306;11.350;2023-05-13T01:15:03;96420.09;;;7.54;100.00
596;BME280;19946;49.306;11.350;2023-05-13T01:18:14;96401.78;;;7.46;100.00
596;BME280;19946;49.306;11.350;2023-05-13T01:21:27;96418.75;;;7.48;100.00
596;BME280;19946;49.306;11.350;2023-05-13T01:24:28;96388.88;;;7.35;100.00
596;BME280;19946;49.306;11.350;2023-05-13T01:27:30;96416.13;;;7.61;100.00
596;BME280;19946;49.306;11.350;2023-05-13T01:30:31;96393.31;;;7.32;100.00
596;BME280;19946;49.306;11.350;2023-05-13T01:33:36;96416.19;;;7.48;100.00
596;BME280;19946;49.306;11.350;2023-05-13T01:36:38;96415.25;;;7.49;100.00
596;BME280;19946;49.306;11.350;2023-05-13T01:39:39;96404.69;;;7.41;100.00
596;BME280;19946;49.306;11.350;2023-05-13T01:42:45;96402.69;;;7.33;100.00
596;BME280;19946;49.306;11.350;2023-05-13T01:45:48;96416.03;;;7.39;100.00
596;BME280;19946;49.306;11.350;2023-05-13T01:49:31;96393.63;;;7.28;100.00
596;BME280;19946;49.306;11.350;2023-05-13T01:52:39;96415.09;;;7.40;100.00
596;BME280;19946;49.306;11.350;2023-05-13T01:55:45;96414.16;;;7.41;100.00
596;BME280;19946;49.306;11.350;2023-05-13T01:59:18;96407.84;;;7.33;100.00
596;BME280;19946;49.306;11.350;2023-05-13T02:02:30;96418.72;;;7.37;100.00
596;BME280;19946;49.306;11.350;2023-05-13T02:05:31;96417.88;;;7.37;100.00
596;BME280;19946;49.306;11.350;2023-05-13T02:08:36;96408.72;;;7.21;100.00
596;BME280;19946;49.306;11.350;2023-05-13T02:11:37;96414.94;;;7.30;100.00
596;BME280;19946;49.306;11.350;2023-05-13T02:14:39;96415.78;;;7.30;100.00
596;BME280;19946;49.306;11.350;2023-05-13T02:17:39;96392.03;;;7.14;100.00
596;BME280;19946;49.306;11.350;2023-05-13T02:20:40;96406.28;;;7.31;100.00
596;BME280;19946;49.306;11.350;2023-05-13T02:23:42;96392.75;;;7.16;100.00
596;BME280;19946;49.306;11.350;2023-05-13T02:26:44;96412.75;;;7.37;100.00
596;BME280;19946;49.306;11.350;2023-05-13T02:29:49;96410.50;;;7.32;100.00
596;BME280;19946;49.306;11.350;2023-05-13T02:32:56;96412.97;;;7.33;100.00
596;BME280;19946;49.306;11.350;2023-05-13T02:35:56;96408.03;;;7.30;100.00
596;BME280;19946;49.306;11.350;2023-05-13T02:38:59;96409.59;;;7.33;100.00
596;BME280;19946;49.306;11.350;2023-05-13T02:41:59;96418.97;;;7.34;100.00
596;BME280;19946;49.306;11.350;2023-05-13T02:45:05;96412.31;;;7.43;100.00
596;BME280;19946;49.306;11.350;2023-05-13T02:48:08;96414.88;;;7.43;100.00
596;BME280;19946;49.306;11.350;2023-05-13T02:51:10;96385.75;;;7.18;100.00
596;BME280;19946;49.306;11.350;2023-05-13T02:54:11;96392.59;;;7.30;100.00
596;BME280;19946;49.306;11.350;2023-05-13T02:57:12;96406.91;;;7.35;100.00
596;BME280;19946;49.306;11.350;2023-05-13T03:00:14;96408.31;;;7.39;100.00
596;BME280;19946;49.306;11.350;2023-05-13T03:03:15;96413.03;;;7.45;100.00
596;BME280;19946;49.306;11.350;2023-05-13T03:06:15;96379.63;;;7.08;100.00
596;BME280;19946;49.306;11.350;2023-05-13T03:09:16;96425.81;;;7.46;100.00
596;BME280;19946;49.306;11.350;2023-05-13T03:12:18;96414.75;;;7.33;100.00
596;BME280;19946;49.306;11.350;2023-05-13T03:15:23;96433.69;;;7.56;100.00
596;BME280;19946;49.306;11.350;2023-05-13T03:18:25;96415.34;;;7.48;100.00
596;BME280;19946;49.306;11.350;2023-05-13T03:21:28;96426.00;;;7.43;100.00
596;BME280;19946;49.306;11.350;2023-05-13T03:24:30;96426.28;;;7.51;100.00
596;BME280;19946;49.306;11.350;2023-05-13T03:27:31;96424.44;;;7.64;100.00
596;BME280;19946;49.306;11.350;2023-05-13T03:30:32;96428.78;;;7.64;100.00
596;BME280;19946;49.306;11.350;2023-05-13T03:33:38;96431.78;;;7.58;100.00
596;BME280;19946;49.306;11.350;2023-05-13T03:36:41;96417.28;;;7.57;100.00
596;BME280;19946;49.306;11.350;2023-05-13T03:39:41;96424.56;;;7.63;100.00
596;BME280;19946;49.306;11.350;2023-05-13T03:42:43;96398.25;;;7.47;100.00
596;BME280;19946;49.306;11.350;2023-05-13T03:45:44;96415.16;;;7.51;100.00
596;BME280;19946;49.306;11.350;2023-05-13T03:48:49;96417.97;;;7.59;100.00
596;BME280;19946;49.306;11.350;2023-05-13T03:51:50;96418.47;;;7.64;100.00
596;BME280;19946;49.306;11.350;2023-05-13T03:54:51;96430.31;;;7.66;100.00
596;BME280;19946;49.306;11.350;2023-05-13T03:57:53;96419.63;;;7.60;100.00
596;BME280;19946;49.306;11.350;2023-05-13T04:00:54;96428.53;;;7.56;100.00
596;BME280;19946;49.306;11.350;2023-05-13T04:03:57;96429.72;;;7.63;100.00
596;BME280;19946;49.306;11.350;2023-05-13T04:06:58;96438.28;;;7.63;100.00
596;BME280;19946;49.306;11.350;2023-05-13T04:10:00;96427.81;;;7.54;100.00
596;BME280;19946;49.306;11.350;2023-05-13T04:13:01;96421.84;;;7.53;100.00
596;BME280;19946;49.306;11.350;2023-05-13T04:16:02;96428.88;;;7.62;100.00
596;BME280;19946;49.306;11.350;2023-05-13T04:19:07;96416.72;;;7.64;100.00
596;BME280;19946;49.306;11.350;2023-05-13T04:22:09;96438.56;;;7.83;100.00
596;BME280;19946;49.306;11.350;2023-05-13T04:25:10;96452.03;;;7.75;100.00
596;BME280;19946;49.306;11.350;2023-05-13T04:28:10;96447.81;;;7.85;100.00
596;BME280;19946;49.306;11.350;2023-05-13T04:31:16;96449.81;;;7.82;100.00
596;BME280;19946;49.306;11.350;2023-05-13T04:34:18;96412.84;;;7.70;100.00
596;BME280;19946;49.306;11.350;2023-05-13T04:37:20;96423.31;;;7.80;100.00
596;BME280;19946;49.306;11.350;2023-05-13T04:40:24;96449.25;;;8.00;100.00
596;BME280;19946;49.306;11.350;2023-05-13T04:43:30;96454.00;;;8.18;100.00
596;BME280;19946;49.306;11.350;2023-05-13T04:46:34;96467.09;;;8.15;100.00
596;BME280;19946;49.306;11.350;2023-05-13T04:49:37;96465.53;;;8.01;100.00
596;BME280;19946;49.306;11.350;2023-05-13T04:52:38;96471.31;;;8.04;100.00
596;BME280;19946;49.306;11.350;2023-05-13T04:55:39;96448.69;;;7.97;100.00
596;BME280;19946;49.306;11.350;2023-05-13T04:58:40;96470.06;;;8.10;100.00
596;BME280;19946;49.306;11.350;2023-05-13T05:01:41;96468.97;;;8.13;100.00
596;BME280;19946;49.306;11.350;2023-05-13T05:04:43;96468.53;;;8.19;100.00
596;BME280;19946;49.306;11.350;2023-05-13T05:07:47;96466.53;;;8.22;100.00
596;BME280;19946;49.306;11.350;2023-05-13T05:10:50;96453.75;;;8.10;100.00
596;BME280;19946;49.306;11.350;2023-05-13T05:13:56;96471.81;;;8.21;100.00
596;BME280;19946;49.306;11.350;2023-05-13T05:16:58;96455.03;;;8.15;100.00
596;BME280;19946;49.306;11.350;2023-05-13T05:20:00;96472.19;;;8.27;100.00
596;BME280;19946;49.306;11.350;2023-05-13T05:23:01;96485.34;;;8.35;100.00
596;BME280;19946;49.306;11.350;2023-05-13T05:26:04;96446.03;;;8.21;100.00
596;BME280;19946;49.306;11.350;2023-05-13T05:29:09;96480.81;;;8.50;100.00
596;BME280;19946;49.306;11.350;2023-05-13T05:32:11;96443.91;;;8.26;100.00
596;BME280;19946;49.306;11.350;2023-05-13T05:35:12;96491.84;;;8.52;100.00
596;BME280;19946;49.306;11.350;2023-05-13T05:38:15;96468.13;;;8.47;100.00
596;BME280;19946;49.306;11.350;2023-05-13T05:41:18;96480.09;;;8.59;100.00
596;BME280;19946;49.306;11.350;2023-05-13T05:44:20;96485.47;;;8.56;100.00
596;BME280;19946;49.306;11.350;2023-05-13T05:47:20;96489.25;;;8.52;100.00
596;BME280;19946;49.306;11.350;2023-05-13T05:50:22;96494.66;;;8.71;100.00
596;BME280;19946;49.306;11.350;2023-05-13T05:53:24;96484.66;;;8.78;100.00
596;BME280;19946;49.306;11.350;2023-05-13T05:56:26;96495.59;;;8.82;100.00
596;BME280;19946;49.306;11.350;2023-05-13T05:59:30;96495.47;;;8.83;100.00
596;BME280;19946;49.306;11.350;2023-05-13T06:02:30;96481.25;;;8.77;100.00
596;BME280;19946;49.306;11.350;2023-05-13T06:05:32;96505.31;;;8.89;100.00
596;BME280;19946;49.306;11.350;2023-05-13T06:08:33;96489.81;;;9.00;100.00
596;BME280;19946;49.306;11.350;2023-05-13T06:11:36;96484.91;;;9.08;100.00
596;BME280;19946;49.306;11.350;2023-05-13T06:14:37;96498.25;;;9.13;100.00
596;BME280;19946;49.306;11.350;2023-05-13T06:17:40;96510.47;;;9.23;100.00
596;BME280;19946;49.306;11.350;2023-05-13T06:20:44;96504.03;;;9.17;100.00
596;BME280;19946;49.306;11.350;2023-05-13T06:23:45;96500.97;;;9.12;100.00
596;BME280;19946;49.306;11.350;2023-05-13T06:26:47;96511.41;;;9.22;100.00
596;BME280;19946;49.306;11.350;2023-05-13T06:29:48;96481.81;;;9.26;100.00
596;BME280;19946;49.306;11.350;2023-05-13T06:32:50;96504.88;;;9.61;100.00
596;BME280;19946;49.306;11.350;2023-05-13T06:35:57;96480.75;;;9.28;100.00
596;BME280;19946;49.306;11.350;2023-05-13T06:39:07;96494.50;;;9.29;100.00
596;BME280;19946;49.306;11.350;2023-05-13T06:42:16;96463.59;;;9.27;100.00
596;BME280;19946;49.306;11.350;2023-05-13T06:45:32;96508.00;;;9.64;100.00
596;BME280;19946;49.306;11.350;2023-05-13T06:48:33;96422.09;;;9.08;100.00
596;BME280;19946;49.306;11.350;2023-05-13T06:51:35;96471.78;;;9.32;100.00
596;BME280;19946;49.306;11.350;2023-05-13T06:54:37;96512.81;;;9.69;100.00
596;BME280;19946;49.306;11.350;2023-05-13T06:57:37;96477.16;;;9.51;100.00
596;BME280;19946;49.306;11.350;2023-05-13T07:00:39;96494.97;;;9.66;100.00
596;BME280;19946;49.306;11.350;2023-05-13T07:03:40;96502.69;;;9.98;100.00
596;BME280;19946;49.306;11.350;2023-05-13T07:06:40;96486.22;;;9.46;100.00
596;BME280;19946;49.306;11.350;2023-05-13T07:09:42;96507.09;;;9.86;100.00
596;BME280;19946;49.306;11.350;2023-05-13T07:12:43;96500.28;;;9.53;100.00
596;BME280;19946;49.306;11.350;2023-05-13T07:15:44;96485.78;;;9.41;100.00
596;BME280;19946;49.306;11.350;2023-05-13T07:18:46;96477.91;;;9.31;100.00
596;BME280;19946;49.306;11.350;2023-05-13T07:21:48;96476.53;;;9.16;100.00
596;BME280;19946;49.306;11.350;2023-05-13T07:24:49;96473.47;;;9.11;100.00
596;BME280;19946;49.306;11.350;2023-05-13T07:27:53;96522.50;;;9.44;100.00
596;BME280;19946;49.306;11.350;2023-05-13T07:30:54;96466.50;;;9.34;100.00
596;BME280;19946;49.306;11.350;2023-05-13T07:33:55;96486.38;;;9.22;100.00
596;BME280;19946;49.306;11.350;2023-05-13T07:36:56;96467.88;;;8.95;100.00
596;BME280;19946;49.306;11.350;2023-05-13T07:40:00;96504.44;;;9.33;100.00
596;BME280;19946;49.306;11.350;2023-05-13T07:43:00;96452.25;;;9.07;100.00
596;BME280;19946;49.306;11.350;2023-05-13T07:46:01;96464.78;;;9.23;100.00
596;BME280;19946;49.306;11.350;2023-05-13T07:49:02;96475.31;;;9.31;100.00
596;BME280;19946;49.306;11.350;2023-05-13T07:52:06;96501.94;;;9.54;100.00
596;BME280;19946;49.306;11.350;2023-05-13T07:58:27;96456.59;;;9.18;100.00
596;BME280;19946;49.306;11.350;2023-05-13T08:01:28;96480.59;;;9.41;100.00
596;BME280;19946;49.306;11.350;2023-05-13T08:04:30;96512.53;;;9.51;100.00
596;BME280;19946;49.306;11.350;2023-05-13T08:07:31;96481.38;;;9.52;100.00
596;BME280;19946;49.306;11.350;2023-05-13T08:10:32;96491.00;;;9.62;100.00
596;BME280;19946;49.306;11.350;2023-05-13T08:13:36;96531.44;;;9.95;100.00
596;BME280;19946;49.306;11.350;2023-05-13T08:16:56;96496.59;;;9.67;100.00
596;BME280;19946;49.306;11.350;2023-05-13T08:20:00;96484.63;;;9.66;100.00
596;BME280;19946;49.306;11.350;2023-05-13T08:23:01;96539.50;;;10.01;100.00
596;BME280;19946;49.306;11.350;2023-05-13T08:26:03;96535.59;;;10.07;100.00
596;BME280;19946;49.306;11.350;2023-05-13T08:29:03;96520.63;;;9.89;100.00
596;BME280;19946;49.306;11.350;2023-05-13T08:32:05;96504.91;;;9.81;100.00
596;BME280;19946;49.306;11.350;2023-05-13T08:35:05;96494.06;;;9.87;100.00
596;BME280;19946;49.306;11.350;2023-05-13T08:38:06;96500.25;;;9.96;100.00
596;BME280;19946;49.306;11.350;2023-05-13T08:41:07;96469.00;;;9.88;100.00
596;BME280;19946;49.306;11.350;2023-05-13T08:44:11;96504.66;;;10.37;100.00
596;BME280;19946;49.306;11.350;2023-05-13T08:47:37;96473.69;;;10.15;100.00
596;BME280;19946;49.306;11.350;2023-05-13T08:50:40;96532.75;;;11.33;100.00
596;BME280;19946;49.306;11.350;2023-05-13T08:53:43;96460.34;;;10.91;100.00
596;BME280;19946;49.306;11.350;2023-05-13T08:56:44;96527.34;;;11.55;100.00
596;BME280;19946;49.306;11.350;2023-05-13T08:59:45;96529.03;;;11.76;100.00
596;BME280;19946;49.306;11.350;2023-05-13T09:02:46;96500.50;;;12.04;100.00
596;BME280;19946;49.306;11.350;2023-05-13T09:05:48;96524.69;;;12.05;100.00
596;BME280;19946;49.306;11.350;2023-05-13T09:08:49;96529.03;;;12.14;100.00
596;BME280;19946;49.306;11.350;2023-05-13T09:11:49;96512.63;;;12.42;100.00
596;BME280;19946;49.306;11.350;2023-05-13T09:14:49;96533.16;;;12.07;100.00
596;BME280;19946;49.306;11.350;2023-05-13T09:17:54;96514.53;;;12.40;100.00
596;BME280;19946;49.306;11.350;2023-05-13T09:20:56;96500.63;;;12.22;100.00
596;BME280;19946;49.306;11.350;2023-05-13T09:24:11;96505.56;;;11.87;100.00
596;BME280;19946;49.306;11.350;2023-05-13T09:27:13;96501.22;;;11.28;100.00
596;BME280;19946;49.306;11.350;2023-05-13T09:30:14;96521.63;;;11.12;100.00
596;BME280;19946;49.306;11.350;2023-05-13T09:33:21;96541.59;;;11.21;100.00
596;BME280;19946;49.306;11.350;2023-05-13T09:36:21;96518.41;;;10.89;100.00
596;BME280;19946;49.306;11.350;2023-05-13T09:39:23;96515.00;;;10.88;100.00
596;BME280;19946;49.306;11.350;2023-05-13T09:42:24;96516.81;;;10.67;100.00
596;BME280;19946;49.306;11.350;2023-05-13T09:45:24;96504.19;;;10.83;100.00
596;BME280;19946;49.306;11.350;2023-05-13T09:51:42;96491.47;;;11.01;100.00
596;BME280;19946;49.306;11.350;2023-05-13T09:54:43;96537.75;;;11.25;100.00
596;BME280;19946;49.306;11.350;2023-05-13T09:57:45;96539.28;;;11.27;100.00
596;BME280;19946;49.306;11.350;2023-05-13T10:00:50;96484.41;;;10.52;100.00
596;BME280;19946;49.306;11.350;2023-05-13T10:03:54;96488.28;;;10.57;100.00
596;BME280;19946;49.306;11.350;2023-05-13T10:06:57;96508.47;;;10.64;100.00
596;BME280;19946;49.306;11.350;2023-05-13T10:10:00;96499.19;;;10.40;100.00
596;BME280;19946;49.306;11.350;2023-05-13T10:13:07;96546.63;;;10.61;100.00
596;BME280;19946;49.306;11.350;2023-05-13T10:16:08;96477.25;;;10.35;100.00
596;BME280;19946;49.306;11.350;2023-05-13T10:19:09;96519.84;;;10.82;100.00
596;BME280;19946;49.306;11.350;2023-05-13T10:22:11;96492.34;;;10.81;100.00
596;BME280;19946;49.306;11.350;2023-05-13T10:25:15;96510.47;;;10.81;100.00
596;BME280;19946;49.306;11.350;2023-05-13T10:28:20;96548.44;;;10.91;100.00
596;BME280;19946;49.306;11.350;2023-05-13T10:31:21;96490.75;;;10.59;100.00
596;BME280;19946;49.306;11.350;2023-05-13T10:34:31;96484.16;;;10.55;100.00
596;BME280;19946;49.306;11.350;2023-05-13T10:37:46;96543.09;;;11.23;100.00
596;BME280;19946;49.306;11.350;2023-05-13T10:44:56;96506.81;;;10.93;100.00
596;BME280;19946;49.306;11.350;2023-05-13T10:48:04;96523.75;;;11.37;100.00
596;BME280;19946;49.306;11.350;2023-05-13T10:51:08;96517.59;;;11.88;100.00
596;BME280;19946;49.306;11.350;2023-05-13T10:54:21;96497.78;;;11.77;100.00
596;BME280;19946;49.306;11.350;2023-05-13T10:57:35;96497.91;;;11.85;100.00
596;BME280;19946;49.306;11.350;2023-05-13T11:00:43;96520.56;;;12.12;100.00
596;BME280;19946;49.306;11.350;2023-05-13T11:03:53;96472.91;;;11.06;100.00
596;BME280;19946;49.306;11.350;2023-05-13T11:06:54;96537.41;;;11.49;100.00
596;BME280;19946;49.306;11.350;2023-05-13T11:10:31;96481.38;;;11.08;100.00
596;BME280;19946;49.306;11.350;2023-05-13T11:13:36;96509.59;;;11.60;100.00
596;BME280;19946;49.306;11.350;2023-05-13T11:20:01;96523.97;;;11.74;100.00
596;BME280;19946;49.306;11.350;2023-05-13T11:23:03;96481.75;;;11.43;100.00
596;BME280;19946;49.306;11.350;2023-05-13T11:26:13;96514.66;;;11.62;100.00
596;BME280;19946;49.306;11.350;2023-05-13T11:29:30;96496.75;;;11.68;100.00
596;BME280;19946;49.306;11.350;2023-05-13T11:32:56;96486.84;;;11.83;100.00
596;BME280;19946;49.306;11.350;2023-05-13T11:35:58;96499.16;;;12.10;100.00
596;BME280;19946;49.306;11.350;2023-05-13T11:39:07;96511.66;;;12.34;100.00
596;BME280;19946;49.306;11.350;2023-05-13T11:42:09;96473.53;;;12.34;100.00
596;BME280;19946;49.306;11.350;2023-05-13T11:45:10;96476.06;;;11.97;100.00
596;BME280;19946;49.306;11.350;2023-05-13T11:48:19;96471.47;;;12.48;100.00
596;BME280;19946;49.306;11.350;2023-05-13T11:51:21;96483.16;;;12.71;100.00
596;BME280;19946;49.306;11.350;2023-05-13T11:54:25;96515.81;;;13.10;100.00
596;BME280;19946;49.306;11.350;2023-05-13T11:57:29;96501.47;;;13.16;100.00
596;BME280;19946;49.306;11.350;2023-05-13T12:00:33;96490.22;;;12.22;100.00
596;BME280;19946;49.306;11.350;2023-05-13T12:03:34;96530.66;;;12.34;100.00
596;BME280;19946;49.306;11.350;2023-05-13T12:06:46;96492.66;;;12.33;100.00
596;BME280;19946;49.306;11.350;2023-05-13T12:09:52;96505.06;;;12.59;100.00
596;BME280;19946;49.306;11.350;2023-05-13T12:12:56;96522.88;;;12.34;100.00
596;BME280;19946;49.306;11.350;2023-05-13T12:15:57;96516.50;;;12.10;100.00
596;BME280;19946;49.306;11.350;2023-05-13T12:19:04;96534.78;;;12.18;100.00
596;BME280;19946;49.306;11.350;2023-05-13T12:22:07;96509.09;;;12.24;100.00
596;BME280;19946;49.306;11.350;2023-05-13T12:25:43;96552.25;;;12.54;100.00
596;BME280;19946;49.306;11.350;2023-05-13T12:28:44;96546.22;;;12.44;100.00
596;BME280;19946;49.306;11.350;2023-05-13T12:32:02;96524.25;;;12.29;100.00
596;BME280;19946;49.306;11.350;2023-05-13T12:35:22;96544.75;;;12.32;100.00
596;BME280;19946;49.306;11.350;2023-05-13T12:38:58;96540.13;;;12.06;100.00
596;BME280;19946;49.306;11.350;2023-05-13T12:42:01;96533.69;;;12.01;100.00
596;BME280;19946;49.306;11.350;2023-05-13T12:45:01;96552.16;;;12.17;100.00
596;BME280;19946;49.306;11.350;2023-05-13T12:48:02;96540.94;;;12.26;100.00
596;BME280;19946;49.306;11.350;2023-05-13T12:51:03;96528.47;;;12.39;100.00
596;BME280;19946;49.306;11.350;2023-05-13T12:54:05;96547.97;;;12.72;100.00
596;BME280;19946;49.306;11.350;2023-05-13T12:57:08;96536.66;;;12.44;100.00
596;BME280;19946;49.306;11.350;2023-05-13T13:00:11;96558.09;;;12.66;100.00
596;BME280;19946;49.306;11.350;2023-05-13T13:03:13;96548.66;;;12.74;100.00
596;BME280;19946;49.306;11.350;2023-05-13T13:06:34;96540.72;;;12.66;100.00
596;BME280;19946;49.306;11.350;2023-05-13T13:09:36;96550.03;;;12.69;100.00
596;BME280;19946;49.306;11.350;2023-05-13T13:12:41;96553.34;;;12.52;100.00
596;BME280;19946;49.306;11.350;2023-05-13T13:15:42;96536.47;;;12.85;100.00
596;BME280;19946;49.306;11.350;2023-05-13T13:18:43;96551.34;;;12.92;100.00
596;BME280;19946;49.306;11.350;2023-05-13T13:21:44;96517.94;;;12.97;100.00
596;BME280;19946;49.306;11.350;2023-05-13T13:24:45;96475.19;;;13.19;100.00
596;BME280;19946;49.306;11.350;2023-05-13T13:27:46;96540.00;;;13.75;100.00
596;BME280;19946;49.306;11.350;2023-05-13T13:30:47;96500.81;;;13.59;100.00
596;BME280;19946;49.306;11.350;2023-05-13T13:33:49;96515.16;;;13.63;100.00
596;BME280;19946;49.306;11.350;2023-05-13T13:36:50;96522.81;;;13.65;100.00
596;BME280;19946;49.306;11.350;2023-05-13T13:39:51;96472.44;;;13.11;100.00
596;BME280;19946;49.306;11.350;2023-05-13T13:42:51;96475.75;;;13.40;100.00
596;BME280;19946;49.306;11.350;2023-05-13T13:45:52;96498.56;;;13.46;100.00
596;BME280;19946;49.306;11.350;2023-05-13T13:48:55;96530.19;;;13.69;100.00
596;BME280;19946;49.306;11.350;2023-05-13T13:51:55;96477.91;;;13.45;100.00
596;BME280;19946;49.306;11.350;2023-05-13T13:54:57;96519.44;;;13.37;100.00
596;BME280;19946;49.306;11.350;2023-05-13T13:57:59;96523.63;;;13.10;100.00
596;BME280;19946;49.306;11.350;2023-05-13T14:01:04;96513.38;;;13.19;100.00
596;BME280;19946;49.306;11.350;2023-05-13T14:04:12;96502.16;;;13.18;100.00
596;BME280;19946;49.306;11.350;2023-05-13T14:07:13;96480.09;;;13.12;100.00
596;BME280;19946;49.306;11.350;2023-05-13T14:10:16;96479.56;;;12.82;100.00
596;BME280;19946;49.306;11.350;2023-05-13T14:13:21;96500.44;;;12.53;100.00
596;BME280;19946;49.306;11.350;2023-05-13T14:16:22;96521.88;;;12.55;100.00
596;BME280;19946;49.306;11.350;2023-05-13T14:19:28;96473.84;;;12.02;100.00
596;BME280;19946;49.306;11.350;2023-05-13T14:22:28;96526.97;;;12.47;100.00
596;BME280;19946;49.306;11.350;2023-05-13T14:25:29;96467.53;;;12.24;100.00
596;BME280;19946;49.306;11.350;2023-05-13T14:28:30;96448.56;;;12.14;100.00
596;BME280;19946;49.306;11.350;2023-05-13T14:31:31;96457.41;;;12.40;100.00
596;BME280;19946;49.306;11.350;2023-05-13T14:34:34;96486.34;;;12.55;100.00
596;BME280;19946;49.306;11.350;2023-05-13T14:37:34;96462.84;;;12.47;100.00
596;BME280;19946;49.306;11.350;2023-05-13T14:40:37;96506.88;;;12.95;100.00
596;BME280;19946;49.306;11.350;2023-05-13T14:43:38;96515.59;;;13.04;100.00
596;BME280;19946;49.306;11.350;2023-05-13T14:46:39;96502.28;;;13.17;100.00
596;BME280;19946;49.306;11.350;2023-05-13T14:49:40;96482.03;;;13.10;100.00
596;BME280;19946;49.306;11.350;2023-05-13T14:52:42;96455.25;;;13.00;100.00
596;BME280;19946;49.306;11.350;2023-05-13T14:55:43;96470.03;;;13.00;100.00
596;BME280;19946;49.306;11.350;2023-05-13T14:58:43;96439.16;;;12.87;100.00
596;BME280;19946;49.306;11.350;2023-05-13T15:01:44;96478.25;;;13.32;100.00
596;BME280;19946;49.306;11.350;2023-05-13T15:04:45;96498.03;;;13.43;100.00
596;BME280;19946;49.306;11.350;2023-05-13T15:07:49;96487.94;;;13.58;100.00
596;BME280;19946;49.306;11.350;2023-05-13T15:10:50;96454.47;;;13.27;100.00
596;BME280;19946;49.306;11.350;2023-05-13T15:13:54;96396.38;;;12.64;100.00
596;BME280;19946;49.306;11.350;2023-05-13T15:16:55;96457.75;;;12.92;100.00
596;BME280;19946;49.306;11.350;2023-05-13T15:19:55;96453.44;;;12.83;100.00
596;BME280;19946;49.306;11.350;2023-05-13T15:22:57;96426.28;;;12.68;100.00
596;BME280;19946;49.306;11.350;2023-05-13T15:25:58;96447.97;;;12.86;100.00
596;BME280;19946;49.306;11.350;2023-05-13T15:28:58;96461.78;;;12.77;100.00
596;BME280;19946;49.306;11.350;2023-05-13T15:31:59;96444.00;;;12.82;100.00
596;BME280;19946;49.306;11.350;2023-05-13T15:34:59;96457.00;;;13.19;100.00
596;BME280;19946;49.306;11.350;2023-05-13T15:38:00;96430.47;;;13.06;100.00
596;BME280;19946;49.306;11.350;2023-05-13T15:41:00;96449.94;;;13.29;100.00
596;BME280;19946;49.306;11.350;2023-05-13T15:44:01;96460.91;;;13.23;100.00
596;BME280;19946;49.306;11.350;2023-05-13T15:47:01;96455.16;;;12.92;100.00
596;BME280;19946;49.306;11.350;2023-05-13T15:50:05;96459.00;;;12.88;100.00
596;BME280;19946;49.306;11.350;2023-05-13T15:53:06;96463.84;;;12.83;100.00
596;BME280;19946;49.306;11.350;2023-05-13T15:56:08;96474.34;;;13.09;100.00
596;BME280;19946;49.306;11.350;2023-05-13T15:59:10;96417.53;;;12.69;100.00
596;BME280;19946;49.306;11.350;2023-05-13T16:02:11;96411.59;;;12.49;100.00
596;BME280;19946;49.306;11.350;2023-05-13T16:05:13;96418.47;;;12.68;100.00
596;BME280;19946;49.306;11.350;2023-05-13T16:08:18;96467.47;;;13.27;100.00
596;BME280;19946;49.306;11.350;2023-05-13T16:11:19;96465.50;;;13.39;100.00
596;BME280;19946;49.306;11.350;2023-05-13T16:14:19;96417.00;;;12.93;100.00
596;BME280;19946;49.306;11.350;2023-05-13T16:17:20;96419.34;;;12.59;100.00
596;BME280;19946;49.306;11.350;2023-05-13T16:20:20;96458.13;;;12.70;100.00
596;BME280;19946;49.306;11.350;2023-05-13T16:23:21;96464.09;;;12.53;100.00
596;BME280;19946;49.306;11.350;2023-05-13T16:26:22;96392.19;;;11.97;100.00
596;BME280;19946;49.306;11.350;2023-05-13T16:29:24;96422.09;;;12.11;100.00
596;BME280;19946;49.306;11.350;2023-05-13T16:32:25;96380.72;;;11.90;100.00
596;BME280;19946;49.306;11.350;2023-05-13T16:35:29;96464.34;;;12.50;100.00
596;BME280;19946;49.306;11.350;2023-05-13T16:38:31;96404.34;;;11.96;100.00